sensor_id;sensor_type;location;lat;lon;timestamp;P1;durP1;ratioP1;P2;durP2;ratioP2
77324;SDS011;66387;53.440;10.390;2024-03-23T00:55:35;16.30;;;3.67;;
77324;SDS011;66387;53.440;10.390;2024-03-23T00:58:01;17.40;;;3.77;;
77324;SDS011;66387;53.440;10.390;2024-03-23T01:00:26;16.73;;;3.40;;
77324;SDS011;66387;53.440;10.390;2024-03-23T01:02:51;10.47;;;3.50;;
77324;SDS011;66387;53.440;10.390;2024-03-23T01:05:16;10.93;;;2.53;;
77324;SDS011;66387;53.440;10.390;2024-03-23T01:07:42;15.27;;;4.70;;
77324;SDS011;66387;53.440;10.390;2024-03-23T01:10:07;12.90;;;3.03;;
77324;SDS011;66387;53.440;10.390;2024-03-23T01:12:32;13.95;;;3.42;;
77324;SDS011;66387;53.440;10.390;2024-03-23T01:14:58;12.47;;;3.60;;
77324;SDS011;66387;53.440;10.390;2024-03-23T01:17:23;12.35;;;3.35;;
77324;SDS011;66387;53.440;10.390;2024-03-23T01:19:48;14.27;;;4.00;;
77324;SDS011;66387;53.440;10.390;2024-03-23T01:22:13;15.80;;;4.20;;
77324;SDS011;66387;53.440;10.390;2024-03-23T01:24:39;8.90;;;3.17;;
77324;SDS011;66387;53.440;10.390;2024-03-23T01:27:04;10.63;;;4.10;;
77324;SDS011;66387;53.440;10.390;2024-03-23T01:29:29;10.68;;;3.90;;
77324;SDS011;66387;53.440;10.390;2024-03-23T01:31:55;10.90;;;3.20;;
77324;SDS011;66387;53.440;10.390;2024-03-23T01:34:20;11.70;;;2.90;;
77324;SDS011;66387;53.440;10.390;2024-03-23T01:36:46;22.90;;;5.30;;
77324;SDS011;66387;53.440;10.390;2024-03-23T01:39:12;13.30;;;3.15;;
77324;SDS011;66387;53.440;10.390;2024-03-23T01:41:37;11.63;;;3.28;;
77324;SDS011;66387;53.440;10.390;2024-03-23T01:44:05;12.05;;;3.35;;
77324;SDS011;66387;53.440;10.390;2024-03-23T01:46:32;8.38;;;3.10;;
77324;SDS011;66387;53.440;10.390;2024-03-23T01:48:57;12.63;;;4.45;;
77324;SDS011;66387;53.440;10.390;2024-03-23T01:51:23;10.80;;;3.13;;
77324;SDS011;66387;53.440;10.390;2024-03-23T01:53:48;14.45;;;3.78;;
77324;SDS011;66387;53.440;10.390;2024-03-23T01:56:14;14.25;;;3.20;;
77324;SDS011;66387;53.440;10.390;2024-03-23T01:58:39;10.17;;;3.63;;
77324;SDS011;66387;53.440;10.390;2024-03-23T02:01:04;18.23;;;3.97;;
77324;SDS011;66387;53.440;10.390;2024-03-23T02:03:29;12.43;;;4.43;;
77324;SDS011;66387;53.440;10.390;2024-03-23T02:05:55;19.70;;;3.83;;
77324;SDS011;66387;53.440;10.390;2024-03-23T02:08:21;8.25;;;3.75;;
77324;SDS011;66387;53.440;10.390;2024-03-23T02:10:50;13.27;;;2.95;;
77324;SDS011;66387;53.440;10.390;2024-03-23T02:13:17;13.82;;;3.38;;
77324;SDS011;66387;53.440;10.390;2024-03-23T02:15:43;11.05;;;3.92;;
77324;SDS011;66387;53.440;10.390;2024-03-23T02:18:09;10.45;;;2.85;;
77324;SDS011;66387;53.440;10.390;2024-03-23T02:20:35;13.45;;;4.85;;
77324;SDS011;66387;53.440;10.390;2024-03-23T02:23:01;14.55;;;3.80;;
77324;SDS011;66387;53.440;10.390;2024-03-23T02:25:27;15.75;;;3.45;;
77324;SDS011;66387;53.440;10.390;2024-03-23T02:27:52;9.60;;;3.30;;
77324;SDS011;66387;53.440;10.390;2024-03-23T02:30:19;9.30;;;3.58;;
77324;SDS011;66387;53.440;10.390;2024-03-23T02:32:44;12.85;;;3.58;;
77324;SDS011;66387;53.440;10.390;2024-03-23T02:35:09;12.90;;;3.57;;
77324;SDS011;66387;53.440;10.390;2024-03-23T02:37:35;15.07;;;3.50;;
77324;SDS011;66387;53.440;10.390;2024-03-23T02:40:00;16.10;;;3.57;;
77324;SDS011;66387;53.440;10.390;2024-03-23T02:42:25;12.97;;;3.63;;
77324;SDS011;66387;53.440;10.390;2024-03-23T02:44:51;10.88;;;3.40;;
77324;SDS011;66387;53.440;10.390;2024-03-23T02:47:16;11.87;;;3.63;;
77324;SDS011;66387;53.440;10.390;2024-03-23T02:49:41;12.93;;;3.53;;
77324;SDS011;66387;53.440;10.390;2024-03-23T02:52:06;10.67;;;3.13;;
77324;SDS011;66387;53.440;10.390;2024-03-23T02:54:32;13.40;;;3.17;;
77324;SDS011;66387;53.440;10.390;2024-03-23T02:56:57;12.10;;;3.37;;
77324;SDS011;66387;53.440;10.390;2024-03-23T02:59:22;17.07;;;4.33;;
77324;SDS011;66387;53.440;10.390;2024-03-23T03:01:47;9.53;;;2.70;;
77324;SDS011;66387;53.440;10.390;2024-03-23T03:04:13;12.07;;;5.17;;
77324;SDS011;66387;53.440;10.390;2024-03-23T03:06:38;9.43;;;3.67;;
77324;SDS011;66387;53.440;10.390;2024-03-23T03:09:03;16.97;;;3.20;;
77324;SDS011;66387;53.440;10.390;2024-03-23T03:11:29;10.85;;;3.25;;
77324;SDS011;66387;53.440;10.390;2024-03-23T03:13:54;15.80;;;3.58;;
77324;SDS011;66387;53.440;10.390;2024-03-23T03:16:20;18.70;;;3.50;;
77324;SDS011;66387;53.440;10.390;2024-03-23T03:18:45;17.48;;;3.95;;
77324;SDS011;66387;53.440;10.390;2024-03-23T03:21:11;13.68;;;3.65;;
77324;SDS011;66387;53.440;10.390;2024-03-23T03:23:37;15.93;;;4.47;;
77324;SDS011;66387;53.440;10.390;2024-03-23T03:26:03;11.07;;;3.63;;
77324;SDS011;66387;53.440;10.390;2024-03-23T03:28:28;11.73;;;3.47;;
77324;SDS011;66387;53.440;10.390;2024-03-23T03:30:55;11.23;;;2.97;;
77324;SDS011;66387;53.440;10.390;2024-03-23T03:33:21;10.95;;;3.55;;
77324;SDS011;66387;53.440;10.390;2024-03-23T03:35:46;8.80;;;3.45;;
77324;SDS011;66387;53.440;10.390;2024-03-23T03:38:12;10.00;;;3.33;;
77324;SDS011;66387;53.440;10.390;2024-03-23T03:40:37;10.27;;;3.60;;
77324;SDS011;66387;53.440;10.390;2024-03-23T03:43:02;10.17;;;3.73;;
77324;SDS011;66387;53.440;10.390;2024-03-23T03:45:27;13.95;;;3.60;;
77324;SDS011;66387;53.440;10.390;2024-03-23T03:47:53;14.47;;;2.93;;
77324;SDS011;66387;53.440;10.390;2024-03-23T03:50:19;13.43;;;4.23;;
77324;SDS011;66387;53.440;10.390;2024-03-23T03:52:45;14.82;;;3.78;;
77324;SDS011;66387;53.440;10.390;2024-03-23T03:55:13;16.03;;;4.37;;
77324;SDS011;66387;53.440;10.390;2024-03-23T03:57:39;11.63;;;2.97;;
77324;SDS011;66387;53.440;10.390;2024-03-23T04:00:05;14.30;;;3.30;;
77324;SDS011;66387;53.440;10.390;2024-03-23T04:02:31;13.00;;;3.10;;
77324;SDS011;66387;53.440;10.390;2024-03-23T04:04:56;10.70;;;2.77;;
77324;SDS011;66387;53.440;10.390;2024-03-23T04:07:22;10.88;;;3.67;;
77324;SDS011;66387;53.440;10.390;2024-03-23T04:09:48;10.63;;;4.05;;
77324;SDS011;66387;53.440;10.390;2024-03-23T04:12:14;18.10;;;3.97;;
77324;SDS011;66387;53.440;10.390;2024-03-23T04:14:39;17.00;;;3.58;;
77324;SDS011;66387;53.440;10.390;2024-03-23T04:17:04;13.83;;;3.13;;
77324;SDS011;66387;53.440;10.390;2024-03-23T04:19:30;8.43;;;3.63;;
77324;SDS011;66387;53.440;10.390;2024-03-23T04:21:55;15.30;;;5.23;;
77324;SDS011;66387;53.440;10.390;2024-03-23T04:24:20;13.97;;;3.93;;
77324;SDS011;66387;53.440;10.390;2024-03-23T04:26:47;11.23;;;3.00;;
77324;SDS011;66387;53.440;10.390;2024-03-23T04:29:12;10.27;;;2.50;;
77324;SDS011;66387;53.440;10.390;2024-03-23T04:31:37;11.60;;;3.20;;
77324;SDS011;66387;53.440;10.390;2024-03-23T04:34:03;21.92;;;3.72;;
77324;SDS011;66387;53.440;10.390;2024-03-23T04:36:29;10.93;;;4.28;;
77324;SDS011;66387;53.440;10.390;2024-03-23T04:38:54;15.77;;;3.27;;
77324;SDS011;66387;53.440;10.390;2024-03-23T04:41:19;11.00;;;3.43;;
77324;SDS011;66387;53.440;10.390;2024-03-23T04:43:45;12.15;;;2.95;;
77324;SDS011;66387;53.440;10.390;2024-03-23T04:46:10;16.40;;;3.40;;
77324;SDS011;66387;53.440;10.390;2024-03-23T04:48:35;16.20;;;3.03;;
77324;SDS011;66387;53.440;10.390;2024-03-23T04:51:01;13.73;;;3.45;;
77324;SDS011;66387;53.440;10.390;2024-03-23T04:53:26;10.07;;;3.23;;
77324;SDS011;66387;53.440;10.390;2024-03-23T04:55:57;7.50;;;2.88;;
77324;SDS011;66387;53.440;10.390;2024-03-23T04:58:24;17.88;;;4.00;;
77324;SDS011;66387;53.440;10.390;2024-03-23T05:00:53;13.80;;;3.28;;
77324;SDS011;66387;53.440;10.390;2024-03-23T05:03:19;11.88;;;4.72;;
77324;SDS011;66387;53.440;10.390;2024-03-23T05:05:46;12.50;;;3.53;;
77324;SDS011;66387;53.440;10.390;2024-03-23T05:08:11;16.13;;;4.18;;
77324;SDS011;66387;53.440;10.390;2024-03-23T05:10:37;10.98;;;3.17;;
77324;SDS011;66387;53.440;10.390;2024-03-23T05:13:03;19.63;;;3.47;;
77324;SDS011;66387;53.440;10.390;2024-03-23T05:15:28;10.65;;;3.30;;
77324;SDS011;66387;53.440;10.390;2024-03-23T05:17:54;11.48;;;4.65;;
77324;SDS011;66387;53.440;10.390;2024-03-23T05:20:20;13.38;;;3.20;;
77324;SDS011;66387;53.440;10.390;2024-03-23T05:22:45;14.43;;;3.55;;
77324;SDS011;66387;53.440;10.390;2024-03-23T05:25:11;8.43;;;3.40;;
77324;SDS011;66387;53.440;10.390;2024-03-23T05:27:37;14.15;;;4.45;;
77324;SDS011;66387;53.440;10.390;2024-03-23T05:30:02;11.20;;;3.17;;
77324;SDS011;66387;53.440;10.390;2024-03-23T05:32:28;17.83;;;3.85;;
77324;SDS011;66387;53.440;10.390;2024-03-23T05:34:54;11.68;;;3.17;;
77324;SDS011;66387;53.440;10.390;2024-03-23T05:37:22;6.38;;;2.30;;
77324;SDS011;66387;53.440;10.390;2024-03-23T05:39:48;7.90;;;3.63;;
77324;SDS011;66387;53.440;10.390;2024-03-23T05:42:15;8.98;;;3.53;;
77324;SDS011;66387;53.440;10.390;2024-03-23T05:44:42;12.68;;;3.70;;
77324;SDS011;66387;53.440;10.390;2024-03-23T05:47:10;10.68;;;4.28;;
77324;SDS011;66387;53.440;10.390;2024-03-23T05:49:38;9.73;;;3.97;;
77324;SDS011;66387;53.440;10.390;2024-03-23T05:52:03;10.98;;;3.85;;
77324;SDS011;66387;53.440;10.390;2024-03-23T05:54:29;16.67;;;3.20;;
77324;SDS011;66387;53.440;10.390;2024-03-23T05:56:54;20.65;;;3.70;;
77324;SDS011;66387;53.440;10.390;2024-03-23T05:59:20;17.25;;;4.22;;
77324;SDS011;66387;53.440;10.390;2024-03-23T06:01:46;10.23;;;2.72;;
77324;SDS011;66387;53.440;10.390;2024-03-23T06:04:12;17.95;;;3.45;;
77324;SDS011;66387;53.440;10.390;2024-03-23T06:06:38;9.45;;;2.83;;
77324;SDS011;66387;53.440;10.390;2024-03-23T06:09:03;13.70;;;3.43;;
77324;SDS011;66387;53.440;10.390;2024-03-23T06:11:28;10.80;;;5.07;;
77324;SDS011;66387;53.440;10.390;2024-03-23T06:13:53;11.63;;;2.87;;
77324;SDS011;66387;53.440;10.390;2024-03-23T06:16:19;9.67;;;3.20;;
77324;SDS011;66387;53.440;10.390;2024-03-23T06:18:48;9.57;;;2.95;;
77324;SDS011;66387;53.440;10.390;2024-03-23T06:21:13;10.20;;;3.80;;
77324;SDS011;66387;53.440;10.390;2024-03-23T06:23:40;10.75;;;3.60;;
77324;SDS011;66387;53.440;10.390;2024-03-23T06:26:06;15.00;;;4.60;;
77324;SDS011;66387;53.440;10.390;2024-03-23T06:28:31;10.13;;;2.63;;
77324;SDS011;66387;53.440;10.390;2024-03-23T06:30:56;6.10;;;2.73;;
77324;SDS011;66387;53.440;10.390;2024-03-23T06:33:21;12.47;;;3.03;;
77324;SDS011;66387;53.440;10.390;2024-03-23T06:35:50;17.57;;;4.33;;
77324;SDS011;66387;53.440;10.390;2024-03-23T06:38:17;13.77;;;3.50;;
77324;SDS011;66387;53.440;10.390;2024-03-23T06:40:42;11.60;;;3.67;;
77324;SDS011;66387;53.440;10.390;2024-03-23T06:43:07;14.97;;;3.47;;
77324;SDS011;66387;53.440;10.390;2024-03-23T06:45:33;12.25;;;3.47;;
77324;SDS011;66387;53.440;10.390;2024-03-23T06:47:58;14.97;;;3.60;;
77324;SDS011;66387;53.440;10.390;2024-03-23T06:50:23;8.67;;;4.00;;
77324;SDS011;66387;53.440;10.390;2024-03-23T06:52:49;15.60;;;3.60;;
77324;SDS011;66387;53.440;10.390;2024-03-23T06:55:14;9.38;;;3.13;;
77324;SDS011;66387;53.440;10.390;2024-03-23T06:57:40;10.40;;;3.85;;
77324;SDS011;66387;53.440;10.390;2024-03-23T07:00:05;6.73;;;3.40;;
77324;SDS011;66387;53.440;10.390;2024-03-23T07:02:34;9.75;;;3.60;;
77324;SDS011;66387;53.440;10.390;2024-03-23T07:05:00;19.52;;;4.85;;
77324;SDS011;66387;53.440;10.390;2024-03-23T07:07:25;11.50;;;2.87;;
77324;SDS011;66387;53.440;10.390;2024-03-23T07:09:52;12.75;;;3.58;;
77324;SDS011;66387;53.440;10.390;2024-03-23T07:12:17;11.90;;;3.42;;
77324;SDS011;66387;53.440;10.390;2024-03-23T07:14:42;15.93;;;3.40;;
77324;SDS011;66387;53.440;10.390;2024-03-23T07:17:08;16.90;;;4.03;;
77324;SDS011;66387;53.440;10.390;2024-03-23T07:19:33;12.10;;;4.07;;
77324;SDS011;66387;53.440;10.390;2024-03-23T07:21:58;8.77;;;3.00;;
77324;SDS011;66387;53.440;10.390;2024-03-23T07:24:23;12.30;;;3.43;;
77324;SDS011;66387;53.440;10.390;2024-03-23T07:26:49;16.63;;;3.37;;
77324;SDS011;66387;53.440;10.390;2024-03-23T07:29:16;14.25;;;3.67;;
77324;SDS011;66387;53.440;10.390;2024-03-23T07:31:41;18.20;;;3.60;;
77324;SDS011;66387;53.440;10.390;2024-03-23T07:34:06;8.83;;;2.67;;
77324;SDS011;66387;53.440;10.390;2024-03-23T07:36:32;11.95;;;4.10;;
77324;SDS011;66387;53.440;10.390;2024-03-23T07:38:57;11.30;;;3.25;;
77324;SDS011;66387;53.440;10.390;2024-03-23T07:41:22;12.97;;;3.53;;
77324;SDS011;66387;53.440;10.390;2024-03-23T07:43:48;13.80;;;3.38;;
77324;SDS011;66387;53.440;10.390;2024-03-23T07:46:14;12.63;;;3.92;;
77324;SDS011;66387;53.440;10.390;2024-03-23T07:48:40;18.70;;;4.13;;
77324;SDS011;66387;53.440;10.390;2024-03-23T07:51:10;15.68;;;3.85;;
77324;SDS011;66387;53.440;10.390;2024-03-23T07:53:39;9.70;;;3.15;;
77324;SDS011;66387;53.440;10.390;2024-03-23T07:56:08;14.77;;;3.45;;
77324;SDS011;66387;53.440;10.390;2024-03-23T07:58:35;14.88;;;3.42;;
77324;SDS011;66387;53.440;10.390;2024-03-23T08:01:04;8.48;;;3.08;;
77324;SDS011;66387;53.440;10.390;2024-03-23T08:03:33;10.88;;;4.20;;
77324;SDS011;66387;53.440;10.390;2024-03-23T08:06:05;9.45;;;3.28;;
77324;SDS011;66387;53.440;10.390;2024-03-23T08:08:31;10.07;;;2.95;;
77324;SDS011;66387;53.440;10.390;2024-03-23T08:10:57;20.77;;;4.80;;
77324;SDS011;66387;53.440;10.390;2024-03-23T08:13:22;12.00;;;3.73;;
77324;SDS011;66387;53.440;10.390;2024-03-23T08:15:47;14.33;;;3.90;;
77324;SDS011;66387;53.440;10.390;2024-03-23T08:18:12;10.07;;;3.30;;
77324;SDS011;66387;53.440;10.390;2024-03-23T08:20:40;10.65;;;4.35;;
77324;SDS011;66387;53.440;10.390;2024-03-23T08:23:06;10.60;;;3.80;;
77324;SDS011;66387;53.440;10.390;2024-03-23T08:25:32;14.05;;;4.60;;
77324;SDS011;66387;53.440;10.390;2024-03-23T08:27:57;7.63;;;2.87;;
77324;SDS011;66387;53.440;10.390;2024-03-23T08:30:23;11.27;;;2.90;;
77324;SDS011;66387;53.440;10.390;2024-03-23T08:32:48;9.17;;;3.30;;
77324;SDS011;66387;53.440;10.390;2024-03-23T08:35:13;9.93;;;2.87;;
77324;SDS011;66387;53.440;10.390;2024-03-23T08:37:39;11.40;;;3.20;;
77324;SDS011;66387;53.440;10.390;2024-03-23T08:40:04;11.90;;;3.57;;
77324;SDS011;66387;53.440;10.390;2024-03-23T08:42:30;10.35;;;2.85;;
77324;SDS011;66387;53.440;10.390;2024-03-23T08:44:55;9.75;;;3.88;;
77324;SDS011;66387;53.440;10.390;2024-03-23T08:47:20;12.83;;;4.20;;
77324;SDS011;66387;53.440;10.390;2024-03-23T08:49:46;10.57;;;2.73;;
77324;SDS011;66387;53.440;10.390;2024-03-23T08:52:11;8.73;;;3.30;;
77324;SDS011;66387;53.440;10.390;2024-03-23T08:54:36;14.23;;;2.97;;
77324;SDS011;66387;53.440;10.390;2024-03-23T08:57:01;9.87;;;3.33;;
77324;SDS011;66387;53.440;10.390;2024-03-23T08:59:27;9.90;;;2.88;;
77324;SDS011;66387;53.440;10.390;2024-03-23T09:01:52;9.37;;;3.17;;
77324;SDS011;66387;53.440;10.390;2024-03-23T09:04:18;7.78;;;2.50;;
77324;SDS011;66387;53.440;10.390;2024-03-23T09:06:43;5.87;;;2.10;;
77324;SDS011;66387;53.440;10.390;2024-03-23T09:09:08;12.77;;;2.67;;
77324;SDS011;66387;53.440;10.390;2024-03-23T09:11:34;8.48;;;3.38;;
77324;SDS011;66387;53.440;10.390;2024-03-23T09:13:59;8.70;;;2.72;;
77324;SDS011;66387;53.440;10.390;2024-03-23T09:16:24;8.20;;;2.67;;
77324;SDS011;66387;53.440;10.390;2024-03-23T09:18:50;9.40;;;2.47;;
77324;SDS011;66387;53.440;10.390;2024-03-23T09:21:16;9.05;;;2.80;;
77324;SDS011;66387;53.440;10.390;2024-03-23T09:23:44;10.53;;;2.37;;
77324;SDS011;66387;53.440;10.390;2024-03-23T09:26:10;10.75;;;2.15;;
77324;SDS011;66387;53.440;10.390;2024-03-23T09:28:35;13.98;;;2.72;;
77324;SDS011;66387;53.440;10.390;2024-03-23T09:31:04;4.30;;;2.20;;
77324;SDS011;66387;53.440;10.390;2024-03-23T09:33:30;8.95;;;2.63;;
77324;SDS011;66387;53.440;10.390;2024-03-23T09:35:56;8.85;;;2.45;;
77324;SDS011;66387;53.440;10.390;2024-03-23T09:38:22;5.20;;;2.28;;
77324;SDS011;66387;53.440;10.390;2024-03-23T09:40:49;7.57;;;2.17;;
77324;SDS011;66387;53.440;10.390;2024-03-23T09:43:18;8.77;;;3.08;;
77324;SDS011;66387;53.440;10.390;2024-03-23T09:45:44;4.65;;;2.30;;
77324;SDS011;66387;53.440;10.390;2024-03-23T09:48:10;6.55;;;2.40;;
77324;SDS011;66387;53.440;10.390;2024-03-23T09:50:38;6.73;;;2.03;;
77324;SDS011;66387;53.440;10.390;2024-03-23T09:53:04;5.88;;;2.38;;
77324;SDS011;66387;53.440;10.390;2024-03-23T09:55:31;7.90;;;2.22;;
77324;SDS011;66387;53.440;10.390;2024-03-23T09:57:56;7.57;;;2.43;;
77324;SDS011;66387;53.440;10.390;2024-03-23T10:00:21;7.10;;;2.27;;
77324;SDS011;66387;53.440;10.390;2024-03-23T10:02:47;6.90;;;2.30;;
77324;SDS011;66387;53.440;10.390;2024-03-23T10:05:21;6.00;;;2.20;;
77324;SDS011;66387;53.440;10.390;2024-03-23T10:07:50;7.65;;;1.90;;
77324;SDS011;66387;53.440;10.390;2024-03-23T10:10:16;7.50;;;2.05;;
77324;SDS011;66387;53.440;10.390;2024-03-23T10:12:45;6.18;;;1.80;;
77324;SDS011;66387;53.440;10.390;2024-03-23T10:15:17;6.95;;;2.53;;
77324;SDS011;66387;53.440;10.390;2024-03-23T10:17:44;5.05;;;2.08;;
77324;SDS011;66387;53.440;10.390;2024-03-23T10:20:10;7.18;;;1.70;;
77324;SDS011;66387;53.440;10.390;2024-03-23T10:22:39;5.45;;;1.83;;
77324;SDS011;66387;53.440;10.390;2024-03-23T10:25:10;5.63;;;2.13;;
77324;SDS011;66387;53.440;10.390;2024-03-23T10:27:36;5.35;;;1.80;;
77324;SDS011;66387;53.440;10.390;2024-03-23T10:30:12;8.93;;;1.60;;
77324;SDS011;66387;53.440;10.390;2024-03-23T10:32:39;3.60;;;1.67;;
77324;SDS011;66387;53.440;10.390;2024-03-23T10:35:14;5.90;;;2.35;;
77324;SDS011;66387;53.440;10.390;2024-03-23T10:37:44;4.72;;;1.80;;
77324;SDS011;66387;53.440;10.390;2024-03-23T10:40:10;4.57;;;1.60;;
77324;SDS011;66387;53.440;10.390;2024-03-23T10:42:37;3.30;;;1.67;;
77324;SDS011;66387;53.440;10.390;2024-03-23T10:45:06;3.92;;;1.60;;
77324;SDS011;66387;53.440;10.390;2024-03-23T10:47:33;5.38;;;2.00;;
77324;SDS011;66387;53.440;10.390;2024-03-23T10:49:59;6.60;;;1.48;;
77324;SDS011;66387;53.440;10.390;2024-03-23T10:52:25;4.32;;;1.83;;
77324;SDS011;66387;53.440;10.390;2024-03-23T10:54:50;5.85;;;1.88;;
77324;SDS011;66387;53.440;10.390;2024-03-23T10:57:17;4.03;;;1.95;;
77324;SDS011;66387;53.440;10.390;2024-03-23T10:59:45;5.88;;;1.85;;
77324;SDS011;66387;53.440;10.390;2024-03-23T11:02:20;5.22;;;2.10;;
77324;SDS011;66387;53.440;10.390;2024-03-23T11:04:46;8.07;;;1.98;;
77324;SDS011;66387;53.440;10.390;2024-03-23T11:17:27;7.03;;;1.75;;
77324;SDS011;66387;53.440;10.390;2024-03-23T11:19:54;6.20;;;1.98;;
77324;SDS011;66387;53.440;10.390;2024-03-23T11:22:39;5.78;;;1.40;;
77324;SDS011;66387;53.440;10.390;2024-03-23T11:25:17;2.53;;;1.15;;
77324;SDS011;66387;53.440;10.390;2024-03-23T11:27:48;3.60;;;0.95;;
77324;SDS011;66387;53.440;10.390;2024-03-23T11:30:16;5.22;;;1.75;;
77324;SDS011;66387;53.440;10.390;2024-03-23T11:32:42;3.17;;;1.88;;
77324;SDS011;66387;53.440;10.390;2024-03-23T11:35:09;5.40;;;2.08;;
77324;SDS011;66387;53.440;10.390;2024-03-23T11:37:35;6.63;;;1.77;;
77324;SDS011;66387;53.440;10.390;2024-03-23T11:40:14;3.30;;;1.88;;
77324;SDS011;66387;53.440;10.390;2024-03-23T11:42:41;2.72;;;1.00;;
77324;SDS011;66387;53.440;10.390;2024-03-23T11:45:07;2.90;;;1.17;;
77324;SDS011;66387;53.440;10.390;2024-03-23T11:47:33;4.28;;;1.73;;
77324;SDS011;66387;53.440;10.390;2024-03-23T11:49:59;5.23;;;1.77;;
77324;SDS011;66387;53.440;10.390;2024-03-23T11:52:24;5.13;;;1.73;;
77324;SDS011;66387;53.440;10.390;2024-03-23T11:54:49;3.23;;;1.83;;
77324;SDS011;66387;53.440;10.390;2024-03-23T11:57:14;4.53;;;1.50;;
77324;SDS011;66387;53.440;10.390;2024-03-23T11:59:40;6.43;;;1.60;;
77324;SDS011;66387;53.440;10.390;2024-03-23T12:04:41;3.00;;;1.40;;
77324;SDS011;66387;53.440;10.390;2024-03-23T12:07:10;8.25;;;3.22;;
77324;SDS011;66387;53.440;10.390;2024-03-23T12:09:46;3.35;;;1.73;;
77324;SDS011;66387;53.440;10.390;2024-03-23T12:12:15;4.95;;;1.85;;
77324;SDS011;66387;53.440;10.390;2024-03-23T12:14:42;4.68;;;1.75;;
77324;SDS011;66387;53.440;10.390;2024-03-23T12:17:25;5.00;;;1.60;;
77324;SDS011;66387;53.440;10.390;2024-03-23T12:19:50;6.45;;;1.67;;
77324;SDS011;66387;53.440;10.390;2024-03-23T12:22:16;5.88;;;2.40;;
77324;SDS011;66387;53.440;10.390;2024-03-23T12:24:45;1.83;;;0.95;;
77324;SDS011;66387;53.440;10.390;2024-03-23T12:27:10;4.50;;;1.50;;
77324;SDS011;66387;53.440;10.390;2024-03-23T12:29:36;4.20;;;1.73;;
77324;SDS011;66387;53.440;10.390;2024-03-23T12:32:01;4.37;;;1.30;;
77324;SDS011;66387;53.440;10.390;2024-03-23T12:34:27;4.10;;;2.65;;
77324;SDS011;66387;53.440;10.390;2024-03-23T12:36:53;7.15;;;4.15;;
77324;SDS011;66387;53.440;10.390;2024-03-23T12:39:19;3.70;;;2.20;;
77324;SDS011;66387;53.440;10.390;2024-03-23T12:41:46;3.85;;;1.98;;
77324;SDS011;66387;53.440;10.390;2024-03-23T12:44:11;7.68;;;3.88;;
77324;SDS011;66387;53.440;10.390;2024-03-23T12:46:39;3.77;;;1.57;;
77324;SDS011;66387;53.440;10.390;2024-03-23T12:49:05;4.05;;;1.30;;
77324;SDS011;66387;53.440;10.390;2024-03-23T12:51:31;6.10;;;2.03;;
77324;SDS011;66387;53.440;10.390;2024-03-23T12:53:56;4.68;;;1.55;;
77324;SDS011;66387;53.440;10.390;2024-03-23T12:56:22;6.05;;;2.33;;
77324;SDS011;66387;53.440;10.390;2024-03-23T12:58:47;3.07;;;1.73;;
77324;SDS011;66387;53.440;10.390;2024-03-23T13:01:20;3.70;;;1.40;;
77324;SDS011;66387;53.440;10.390;2024-03-23T13:03:48;3.08;;;1.33;;
77324;SDS011;66387;53.440;10.390;2024-03-23T13:06:14;2.13;;;1.55;;
77324;SDS011;66387;53.440;10.390;2024-03-23T13:08:40;3.33;;;1.30;;
77324;SDS011;66387;53.440;10.390;2024-03-23T13:11:06;3.13;;;1.40;;
77324;SDS011;66387;53.440;10.390;2024-03-23T13:13:33;3.85;;;1.50;;
77324;SDS011;66387;53.440;10.390;2024-03-23T13:15:59;1.27;;;1.02;;
77324;SDS011;66387;53.440;10.390;2024-03-23T13:18:24;1.53;;;1.10;;
77324;SDS011;66387;53.440;10.390;2024-03-23T13:20:50;1.43;;;0.50;;
77324;SDS011;66387;53.440;10.390;2024-03-23T13:23:15;0.90;;;0.80;;
77324;SDS011;66387;53.440;10.390;2024-03-23T13:25:40;1.00;;;0.67;;
77324;SDS011;66387;53.440;10.390;2024-03-23T13:28:05;2.83;;;0.65;;
77324;SDS011;66387;53.440;10.390;2024-03-23T13:30:31;1.63;;;1.17;;
77324;SDS011;66387;53.440;10.390;2024-03-23T13:32:56;2.70;;;0.80;;
77324;SDS011;66387;53.440;10.390;2024-03-23T13:35:21;1.73;;;1.00;;
77324;SDS011;66387;53.440;10.390;2024-03-23T13:37:47;2.25;;;0.90;;
77324;SDS011;66387;53.440;10.390;2024-03-23T13:40:13;1.40;;;1.20;;
77324;SDS011;66387;53.440;10.390;2024-03-23T13:42:38;3.37;;;1.03;;
77324;SDS011;66387;53.440;10.390;2024-03-23T13:45:04;2.83;;;1.37;;
77324;SDS011;66387;53.440;10.390;2024-03-23T13:47:29;2.53;;;1.38;;
77324;SDS011;66387;53.440;10.390;2024-03-23T13:49:55;2.45;;;1.27;;
77324;SDS011;66387;53.440;10.390;2024-03-23T13:52:20;4.55;;;1.15;;
77324;SDS011;66387;53.440;10.390;2024-03-23T13:54:48;3.47;;;1.10;;
77324;SDS011;66387;53.440;10.390;2024-03-23T13:57:13;1.73;;;1.00;;
77324;SDS011;66387;53.440;10.390;2024-03-23T13:59:38;1.43;;;0.87;;
77324;SDS011;66387;53.440;10.390;2024-03-23T14:02:04;3.00;;;1.10;;
77324;SDS011;66387;53.440;10.390;2024-03-23T14:04:29;1.50;;;1.00;;
77324;SDS011;66387;53.440;10.390;2024-03-23T14:06:54;2.37;;;0.70;;
77324;SDS011;66387;53.440;10.390;2024-03-23T14:09:19;3.53;;;0.80;;
77324;SDS011;66387;53.440;10.390;2024-03-23T14:11:50;1.10;;;0.73;;
77324;SDS011;66387;53.440;10.390;2024-03-23T14:14:15;1.95;;;0.90;;
77324;SDS011;66387;53.440;10.390;2024-03-23T14:16:42;4.30;;;1.10;;
77324;SDS011;66387;53.440;10.390;2024-03-23T14:19:10;2.55;;;1.20;;
77324;SDS011;66387;53.440;10.390;2024-03-23T14:21:35;2.92;;;1.10;;
77324;SDS011;66387;53.440;10.390;2024-03-23T14:24:01;1.90;;;0.93;;
77324;SDS011;66387;53.440;10.390;2024-03-23T14:26:27;1.80;;;0.90;;
77324;SDS011;66387;53.440;10.390;2024-03-23T14:28:52;3.55;;;1.45;;
77324;SDS011;66387;53.440;10.390;2024-03-23T14:31:17;0.83;;;0.63;;
77324;SDS011;66387;53.440;10.390;2024-03-23T14:33:43;1.03;;;1.00;;
77324;SDS011;66387;53.440;10.390;2024-03-23T14:36:15;3.42;;;1.27;;
77324;SDS011;66387;53.440;10.390;2024-03-23T14:38:41;2.28;;;0.90;;
77324;SDS011;66387;53.440;10.390;2024-03-23T14:41:07;1.90;;;0.93;;
77324;SDS011;66387;53.440;10.390;2024-03-23T14:43:33;0.90;;;0.52;;
77324;SDS011;66387;53.440;10.390;2024-03-23T14:46:08;1.67;;;1.05;;
77324;SDS011;66387;53.440;10.390;2024-03-23T14:48:34;2.35;;;1.02;;
77324;SDS011;66387;53.440;10.390;2024-03-23T14:51:01;1.55;;;0.93;;
77324;SDS011;66387;53.440;10.390;2024-03-23T14:53:29;1.98;;;0.80;;
77324;SDS011;66387;53.440;10.390;2024-03-23T14:55:57;3.13;;;1.30;;
77324;SDS011;66387;53.440;10.390;2024-03-23T14:58:24;2.65;;;1.10;;
77324;SDS011;66387;53.440;10.390;2024-03-23T15:00:50;2.57;;;1.00;;
77324;SDS011;66387;53.440;10.390;2024-03-23T15:03:15;2.10;;;1.10;;
77324;SDS011;66387;53.440;10.390;2024-03-23T15:05:40;1.48;;;0.77;;
77324;SDS011;66387;53.440;10.390;2024-03-23T15:08:06;1.42;;;0.77;;
77324;SDS011;66387;53.440;10.390;2024-03-23T15:10:34;2.10;;;0.90;;
77324;SDS011;66387;53.440;10.390;2024-03-23T15:13:00;1.73;;;0.73;;
77324;SDS011;66387;53.440;10.390;2024-03-23T15:15:25;3.63;;;1.00;;
77324;SDS011;66387;53.440;10.390;2024-03-23T15:17:51;1.25;;;0.90;;
77324;SDS011;66387;53.440;10.390;2024-03-23T15:20:16;1.85;;;0.93;;
77324;SDS011;66387;53.440;10.390;2024-03-23T15:22:42;2.27;;;2.07;;
77324;SDS011;66387;53.440;10.390;2024-03-23T15:25:07;3.00;;;0.77;;
77324;SDS011;66387;53.440;10.390;2024-03-23T15:27:33;2.92;;;1.20;;
77324;SDS011;66387;53.440;10.390;2024-03-23T15:29:58;2.75;;;1.23;;